Carrancas, Brazil
Current Conditions -  °F | °C
As of 10:00 AM on Tuesday 21 Oct 2014 (Local Time) from SBBQ Reporting Station
Light Rain Light Rain  
Wind Chill: 63°   Ceiling: 300
Heat Index: 63°   Visibility: 1.2mi
Dew Point: 59°   Wind: 8mph
Humidity: 88%   Direction: 130°SE
Pressure: 30.24"   Gusts: NA
Location:  21.49°S, 44.64°W
Report Text: SBBQ 211200Z 13007KT 2000 -RA BKN003 17/15 Q1024
Loading
Personal Weather Stations






























Interactive Weather Map
Tropical Storm Tracking
New forecast layout! Learn more

10-Day Weather Forecast

Advertisements
Track Severe Weather on mobile